sensor_id;sensor_type;location;lat;lon;timestamp;temperature;humidity
20670;DHT22;10494;50.868;4.180;2023-03-23T00:02:27;13.30;99.90
20670;DHT22;10494;50.868;4.180;2023-03-23T00:04:53;13.30;99.90
20670;DHT22;10494;50.868;4.180;2023-03-23T00:07:20;13.40;99.90
20670;DHT22;10494;50.868;4.180;2023-03-23T00:09:49;13.30;99.90
20670;DHT22;10494;50.868;4.180;2023-03-23T00:12:27;13.40;99.90
20670;DHT22;10494;50.868;4.180;2023-03-23T00:15:00;13.50;99.90
20670;DHT22;10494;50.868;4.180;2023-03-23T00:17:26;13.40;99.90
20670;DHT22;10494;50.868;4.180;2023-03-23T00:19:52;13.30;99.90
20670;DHT22;10494;50.868;4.180;2023-03-23T00:22:18;13.30;99.90
20670;DHT22;10494;50.868;4.180;2023-03-23T00:24:47;13.20;99.90
20670;DHT22;10494;50.868;4.180;2023-03-23T00:27:13;13.20;99.90
20670;DHT22;10494;50.868;4.180;2023-03-23T00:29:40;13.20;99.90
20670;DHT22;10494;50.868;4.180;2023-03-23T00:32:07;13.30;99.90
20670;DHT22;10494;50.868;4.180;2023-03-23T00:34:38;13.20;99.90
20670;DHT22;10494;50.868;4.180;2023-03-23T00:37:06;13.20;99.90
20670;DHT22;10494;50.868;4.180;2023-03-23T00:39:32;13.20;99.90
20670;DHT22;10494;50.868;4.180;2023-03-23T00:41:58;13.30;99.90
20670;DHT22;10494;50.868;4.180;2023-03-23T00:44:31;13.20;99.90
20670;DHT22;10494;50.868;4.180;2023-03-23T00:46:57;13.20;99.90
20670;DHT22;10494;50.868;4.180;2023-03-23T00:49:24;13.20;99.90
20670;DHT22;10494;50.868;4.180;2023-03-23T00:51:52;13.30;99.90
20670;DHT22;10494;50.868;4.180;2023-03-23T00:54:18;13.30;99.90
20670;DHT22;10494;50.868;4.180;2023-03-23T00:56:43;13.20;99.90
20670;DHT22;10494;50.868;4.180;2023-03-23T00:59:09;13.30;99.90
20670;DHT22;10494;50.868;4.180;2023-03-23T01:01:34;13.30;99.90
20670;DHT22;10494;50.868;4.180;2023-03-23T01:04:01;13.40;99.90
20670;DHT22;10494;50.868;4.180;2023-03-23T01:06:30;13.40;99.90
20670;DHT22;10494;50.868;4.180;2023-03-23T01:08:59;13.40;99.90
20670;DHT22;10494;50.868;4.180;2023-03-23T01:11:26;13.40;99.90
20670;DHT22;10494;50.868;4.180;2023-03-23T01:13:52;13.40;99.90
20670;DHT22;10494;50.868;4.180;2023-03-23T01:16:17;13.40;99.90
20670;DHT22;10494;50.868;4.180;2023-03-23T01:18:43;13.40;99.90
20670;DHT22;10494;50.868;4.180;2023-03-23T01:21:11;13.40;99.90
20670;DHT22;10494;50.868;4.180;2023-03-23T01:23:38;13.30;99.90
20670;DHT22;10494;50.868;4.180;2023-03-23T01:26:06;13.30;99.90
20670;DHT22;10494;50.868;4.180;2023-03-23T01:28:33;13.40;99.90
20670;DHT22;10494;50.868;4.180;2023-03-23T01:31:01;13.40;99.90
20670;DHT22;10494;50.868;4.180;2023-03-23T01:33:27;13.40;99.90
20670;DHT22;10494;50.868;4.180;2023-03-23T01:35:52;13.40;99.90
20670;DHT22;10494;50.868;4.180;2023-03-23T01:38:18;13.40;99.90
20670;DHT22;10494;50.868;4.180;2023-03-23T01:40:44;13.40;99.90
20670;DHT22;10494;50.868;4.180;2023-03-23T01:43:13;13.30;99.90
20670;DHT22;10494;50.868;4.180;2023-03-23T01:45:40;13.40;99.90
20670;DHT22;10494;50.868;4.180;2023-03-23T01:48:28;13.40;99.90
20670;DHT22;10494;50.868;4.180;2023-03-23T01:51:13;13.40;99.90
20670;DHT22;10494;50.868;4.180;2023-03-23T01:53:46;13.30;99.90
20670;DHT22;10494;50.868;4.180;2023-03-23T01:56:14;13.20;99.90
20670;DHT22;10494;50.868;4.180;2023-03-23T01:58:42;13.20;99.90
20670;DHT22;10494;50.868;4.180;2023-03-23T02:01:11;13.10;99.90
20670;DHT22;10494;50.868;4.180;2023-03-23T02:03:39;13.10;99.90
20670;DHT22;10494;50.868;4.180;2023-03-23T02:06:06;13.10;99.90
20670;DHT22;10494;50.868;4.180;2023-03-23T02:08:33;13.10;99.90
20670;DHT22;10494;50.868;4.180;2023-03-23T02:10:59;13.10;99.90
20670;DHT22;10494;50.868;4.180;2023-03-23T02:13:26;13.10;99.90
20670;DHT22;10494;50.868;4.180;2023-03-23T02:18:53;13.10;99.90
20670;DHT22;10494;50.868;4.180;2023-03-23T02:27:01;13.10;99.90
20670;DHT22;10494;50.868;4.180;2023-03-23T02:32:12;13.10;99.90
20670;DHT22;10494;50.868;4.180;2023-03-23T02:34:50;13.10;99.90
20670;DHT22;10494;50.868;4.180;2023-03-23T02:37:38;13.10;99.90
20670;DHT22;10494;50.868;4.180;2023-03-23T02:40:12;13.00;99.90
20670;DHT22;10494;50.868;4.180;2023-03-23T02:42:43;13.00;99.90
20670;DHT22;10494;50.868;4.180;2023-03-23T02:45:11;13.10;99.90
20670;DHT22;10494;50.868;4.180;2023-03-23T02:47:38;13.10;99.90
20670;DHT22;10494;50.868;4.180;2023-03-23T02:50:10;13.00;99.90
20670;DHT22;10494;50.868;4.180;2023-03-23T02:52:38;12.90;99.90
20670;DHT22;10494;50.868;4.180;2023-03-23T02:55:06;12.90;99.90
20670;DHT22;10494;50.868;4.180;2023-03-23T02:57:32;12.90;99.90
20670;DHT22;10494;50.868;4.180;2023-03-23T02:59:58;12.90;99.90
20670;DHT22;10494;50.868;4.180;2023-03-23T03:02:27;13.00;99.90
20670;DHT22;10494;50.868;4.180;2023-03-23T03:05:02;12.90;99.90
20670;DHT22;10494;50.868;4.180;2023-03-23T03:07:36;13.00;99.90
20670;DHT22;10494;50.868;4.180;2023-03-23T03:10:31;12.90;99.90
20670;DHT22;10494;50.868;4.180;2023-03-23T03:15:48;13.00;99.90
20670;DHT22;10494;50.868;4.180;2023-03-23T03:18:26;13.00;99.90
20670;DHT22;10494;50.868;4.180;2023-03-23T03:21:00;13.00;99.90
20670;DHT22;10494;50.868;4.180;2023-03-23T03:23:27;12.90;99.90
20670;DHT22;10494;50.868;4.180;2023-03-23T03:25:54;12.90;99.90
20670;DHT22;10494;50.868;4.180;2023-03-23T03:28:24;13.00;99.90
20670;DHT22;10494;50.868;4.180;2023-03-23T03:30:54;13.00;99.90
20670;DHT22;10494;50.868;4.180;2023-03-23T03:33:22;12.90;99.90
20670;DHT22;10494;50.868;4.180;2023-03-23T03:35:54;12.90;99.90
20670;DHT22;10494;50.868;4.180;2023-03-23T03:38:20;12.90;99.90
20670;DHT22;10494;50.868;4.180;2023-03-23T03:40:46;12.90;99.90
20670;DHT22;10494;50.868;4.180;2023-03-23T03:43:12;12.90;99.90
20670;DHT22;10494;50.868;4.180;2023-03-23T03:45:38;12.90;99.90
20670;DHT22;10494;50.868;4.180;2023-03-23T03:48:03;12.80;99.90
20670;DHT22;10494;50.868;4.180;2023-03-23T03:50:29;12.80;99.90
20670;DHT22;10494;50.868;4.180;2023-03-23T03:52:55;12.90;99.90
20670;DHT22;10494;50.868;4.180;2023-03-23T03:55:21;13.00;99.90
20670;DHT22;10494;50.868;4.180;2023-03-23T03:57:47;13.00;99.90
20670;DHT22;10494;50.868;4.180;2023-03-23T04:00:13;12.90;99.90
20670;DHT22;10494;50.868;4.180;2023-03-23T04:02:44;12.90;99.90
20670;DHT22;10494;50.868;4.180;2023-03-23T04:05:13;12.90;99.90
20670;DHT22;10494;50.868;4.180;2023-03-23T04:07:38;12.90;99.90
20670;DHT22;10494;50.868;4.180;2023-03-23T04:10:05;12.80;99.90
20670;DHT22;10494;50.868;4.180;2023-03-23T04:12:32;12.80;99.90
20670;DHT22;10494;50.868;4.180;2023-03-23T04:14:58;12.80;99.90
20670;DHT22;10494;50.868;4.180;2023-03-23T04:17:24;12.80;99.90
20670;DHT22;10494;50.868;4.180;2023-03-23T04:19:52;12.80;99.90
20670;DHT22;10494;50.868;4.180;2023-03-23T04:22:18;12.80;99.90
20670;DHT22;10494;50.868;4.180;2023-03-23T04:24:43;12.80;99.90
20670;DHT22;10494;50.868;4.180;2023-03-23T04:27:09;12.90;99.90
20670;DHT22;10494;50.868;4.180;2023-03-23T04:29:34;12.90;99.90
20670;DHT22;10494;50.868;4.180;2023-03-23T04:32:00;12.80;99.90
20670;DHT22;10494;50.868;4.180;2023-03-23T04:34:27;12.80;99.90
20670;DHT22;10494;50.868;4.180;2023-03-23T04:36:52;12.70;99.90
20670;DHT22;10494;50.868;4.180;2023-03-23T04:39:19;12.70;99.90
20670;DHT22;10494;50.868;4.180;2023-03-23T04:41:45;12.70;99.90
20670;DHT22;10494;50.868;4.180;2023-03-23T04:44:11;12.70;99.90
20670;DHT22;10494;50.868;4.180;2023-03-23T04:46:43;12.70;99.90
20670;DHT22;10494;50.868;4.180;2023-03-23T04:49:11;12.60;99.90
20670;DHT22;10494;50.868;4.180;2023-03-23T04:51:36;12.70;99.90
20670;DHT22;10494;50.868;4.180;2023-03-23T04:54:04;12.60;99.90
20670;DHT22;10494;50.868;4.180;2023-03-23T04:56:30;12.60;99.90
20670;DHT22;10494;50.868;4.180;2023-03-23T04:58:55;12.60;99.90
20670;DHT22;10494;50.868;4.180;2023-03-23T05:01:21;12.60;99.90
20670;DHT22;10494;50.868;4.180;2023-03-23T05:03:46;12.60;99.90
20670;DHT22;10494;50.868;4.180;2023-03-23T05:06:12;12.60;99.90
20670;DHT22;10494;50.868;4.180;2023-03-23T05:08:37;12.50;99.90
20670;DHT22;10494;50.868;4.180;2023-03-23T05:11:06;12.50;99.90
20670;DHT22;10494;50.868;4.180;2023-03-23T05:13:33;12.50;99.90
20670;DHT22;10494;50.868;4.180;2023-03-23T05:16:02;12.50;99.90
20670;DHT22;10494;50.868;4.180;2023-03-23T05:18:28;12.50;99.90
20670;DHT22;10494;50.868;4.180;2023-03-23T05:20:54;12.50;99.90
20670;DHT22;10494;50.868;4.180;2023-03-23T05:23:20;12.50;99.90
20670;DHT22;10494;50.868;4.180;2023-03-23T05:25:56;12.50;99.90
20670;DHT22;10494;50.868;4.180;2023-03-23T05:28:28;12.60;99.90
20670;DHT22;10494;50.868;4.180;2023-03-23T05:30:56;12.70;99.90
20670;DHT22;10494;50.868;4.180;2023-03-23T05:33:22;12.70;99.90
20670;DHT22;10494;50.868;4.180;2023-03-23T05:35:48;12.70;99.90
20670;DHT22;10494;50.868;4.180;2023-03-23T05:38:14;12.60;99.90
20670;DHT22;10494;50.868;4.180;2023-03-23T05:40:41;12.60;99.90
20670;DHT22;10494;50.868;4.180;2023-03-23T05:43:09;12.60;99.90
20670;DHT22;10494;50.868;4.180;2023-03-23T05:45:35;12.70;99.90
20670;DHT22;10494;50.868;4.180;2023-03-23T05:48:01;12.60;99.90
20670;DHT22;10494;50.868;4.180;2023-03-23T05:50:27;12.60;99.90
20670;DHT22;10494;50.868;4.180;2023-03-23T05:52:54;12.60;99.90
20670;DHT22;10494;50.868;4.180;2023-03-23T05:55:20;12.70;99.90
20670;DHT22;10494;50.868;4.180;2023-03-23T05:57:46;12.70;99.90
20670;DHT22;10494;50.868;4.180;2023-03-23T06:00:12;12.60;99.90
20670;DHT22;10494;50.868;4.180;2023-03-23T06:02:45;12.70;99.90
20670;DHT22;10494;50.868;4.180;2023-03-23T06:05:11;12.80;99.90
20670;DHT22;10494;50.868;4.180;2023-03-23T06:07:37;12.80;99.90
20670;DHT22;10494;50.868;4.180;2023-03-23T06:10:06;12.80;99.90
20670;DHT22;10494;50.868;4.180;2023-03-23T06:12:32;12.70;99.90
20670;DHT22;10494;50.868;4.180;2023-03-23T06:14:58;12.60;99.90
20670;DHT22;10494;50.868;4.180;2023-03-23T06:17:24;12.70;99.90
20670;DHT22;10494;50.868;4.180;2023-03-23T06:19:50;12.70;99.90
20670;DHT22;10494;50.868;4.180;2023-03-23T06:22:16;12.70;99.90
20670;DHT22;10494;50.868;4.180;2023-03-23T06:24:42;12.70;99.90
20670;DHT22;10494;50.868;4.180;2023-03-23T06:27:07;12.70;99.90
20670;DHT22;10494;50.868;4.180;2023-03-23T06:29:35;12.70;99.90
20670;DHT22;10494;50.868;4.180;2023-03-23T06:32:02;12.90;99.90
20670;DHT22;10494;50.868;4.180;2023-03-23T06:34:29;13.10;99.90
20670;DHT22;10494;50.868;4.180;2023-03-23T06:36:55;13.00;99.90
20670;DHT22;10494;50.868;4.180;2023-03-23T06:39:21;13.10;99.90
20670;DHT22;10494;50.868;4.180;2023-03-23T06:41:48;12.90;99.90
20670;DHT22;10494;50.868;4.180;2023-03-23T06:44:13;12.80;99.90
20670;DHT22;10494;50.868;4.180;2023-03-23T06:46:40;12.60;99.90
20670;DHT22;10494;50.868;4.180;2023-03-23T06:49:06;12.30;99.90
20670;DHT22;10494;50.868;4.180;2023-03-23T06:51:32;11.90;99.90
20670;DHT22;10494;50.868;4.180;2023-03-23T06:53:58;11.60;99.90
20670;DHT22;10494;50.868;4.180;2023-03-23T06:56:24;11.50;99.90
20670;DHT22;10494;50.868;4.180;2023-03-23T06:58:50;11.30;99.90
20670;DHT22;10494;50.868;4.180;2023-03-23T07:01:16;11.10;99.90
20670;DHT22;10494;50.868;4.180;2023-03-23T07:03:42;11.00;99.90
20670;DHT22;10494;50.868;4.180;2023-03-23T07:06:08;10.90;99.90
20670;DHT22;10494;50.868;4.180;2023-03-23T07:08:34;10.90;99.90
20670;DHT22;10494;50.868;4.180;2023-03-23T07:11:01;10.80;99.90
20670;DHT22;10494;50.868;4.180;2023-03-23T07:13:27;10.90;99.90
20670;DHT22;10494;50.868;4.180;2023-03-23T07:15:52;10.80;99.90
20670;DHT22;10494;50.868;4.180;2023-03-23T07:18:19;10.70;99.90
20670;DHT22;10494;50.868;4.180;2023-03-23T07:20:52;10.60;99.90
20670;DHT22;10494;50.868;4.180;2023-03-23T07:23:18;10.60;99.90
20670;DHT22;10494;50.868;4.180;2023-03-23T07:25:44;10.60;99.90
20670;DHT22;10494;50.868;4.180;2023-03-23T07:28:11;10.80;99.90
20670;DHT22;10494;50.868;4.180;2023-03-23T07:30:38;11.00;99.90
20670;DHT22;10494;50.868;4.180;2023-03-23T07:33:05;11.20;99.90
20670;DHT22;10494;50.868;4.180;2023-03-23T07:35:31;11.20;99.90
20670;DHT22;10494;50.868;4.180;2023-03-23T07:37:57;11.20;99.90
20670;DHT22;10494;50.868;4.180;2023-03-23T07:40:23;11.20;99.90
20670;DHT22;10494;50.868;4.180;2023-03-23T07:42:53;11.10;99.90
20670;DHT22;10494;50.868;4.180;2023-03-23T07:45:18;11.10;99.90
20670;DHT22;10494;50.868;4.180;2023-03-23T07:47:44;11.10;99.90
20670;DHT22;10494;50.868;4.180;2023-03-23T07:50:10;11.10;99.90
20670;DHT22;10494;50.868;4.180;2023-03-23T07:52:38;11.20;99.90
20670;DHT22;10494;50.868;4.180;2023-03-23T07:55:05;11.20;99.90
20670;DHT22;10494;50.868;4.180;2023-03-23T07:57:31;11.20;99.90
20670;DHT22;10494;50.868;4.180;2023-03-23T07:59:57;11.20;99.90
20670;DHT22;10494;50.868;4.180;2023-03-23T08:02:24;11.30;99.90
20670;DHT22;10494;50.868;4.180;2023-03-23T08:04:50;11.30;99.90
20670;DHT22;10494;50.868;4.180;2023-03-23T08:07:17;11.30;99.90
20670;DHT22;10494;50.868;4.180;2023-03-23T08:09:44;11.20;99.90
20670;DHT22;10494;50.868;4.180;2023-03-23T08:12:10;11.10;99.90
20670;DHT22;10494;50.868;4.180;2023-03-23T08:14:36;11.00;99.90
20670;DHT22;10494;50.868;4.180;2023-03-23T08:17:02;11.00;99.90
20670;DHT22;10494;50.868;4.180;2023-03-23T08:19:27;10.90;99.90
20670;DHT22;10494;50.868;4.180;2023-03-23T08:21:53;10.90;99.90
20670;DHT22;10494;50.868;4.180;2023-03-23T08:24:19;10.90;99.90
20670;DHT22;10494;50.868;4.180;2023-03-23T08:26:44;10.90;99.90
20670;DHT22;10494;50.868;4.180;2023-03-23T08:29:10;10.90;99.90
20670;DHT22;10494;50.868;4.180;2023-03-23T08:31:37;10.90;99.90
20670;DHT22;10494;50.868;4.180;2023-03-23T08:34:03;10.90;99.90
20670;DHT22;10494;50.868;4.180;2023-03-23T08:36:34;10.90;99.90
20670;DHT22;10494;50.868;4.180;2023-03-23T08:39:00;10.90;99.90
20670;DHT22;10494;50.868;4.180;2023-03-23T08:41:26;10.80;99.90
20670;DHT22;10494;50.868;4.180;2023-03-23T08:43:51;10.80;99.90
20670;DHT22;10494;50.868;4.180;2023-03-23T08:46:18;11.00;99.90
20670;DHT22;10494;50.868;4.180;2023-03-23T08:48:45;11.00;99.90
20670;DHT22;10494;50.868;4.180;2023-03-23T08:51:11;11.00;99.90
20670;DHT22;10494;50.868;4.180;2023-03-23T08:53:37;11.10;99.90
20670;DHT22;10494;50.868;4.180;2023-03-23T08:56:08;11.20;99.90
20670;DHT22;10494;50.868;4.180;2023-03-23T08:58:38;11.20;99.90
20670;DHT22;10494;50.868;4.180;2023-03-23T09:01:06;11.20;99.90
20670;DHT22;10494;50.868;4.180;2023-03-23T09:03:32;11.30;99.90
20670;DHT22;10494;50.868;4.180;2023-03-23T09:06:04;11.50;99.90
20670;DHT22;10494;50.868;4.180;2023-03-23T09:08:30;11.60;99.90
20670;DHT22;10494;50.868;4.180;2023-03-23T09:11:04;11.90;99.90
20670;DHT22;10494;50.868;4.180;2023-03-23T09:13:30;12.20;99.90
20670;DHT22;10494;50.868;4.180;2023-03-23T09:15:56;12.40;99.90
20670;DHT22;10494;50.868;4.180;2023-03-23T09:18:22;12.30;99.90
20670;DHT22;10494;50.868;4.180;2023-03-23T09:20:50;12.40;99.90
20670;DHT22;10494;50.868;4.180;2023-03-23T09:23:16;12.50;99.90
20670;DHT22;10494;50.868;4.180;2023-03-23T09:25:42;12.60;99.90
20670;DHT22;10494;50.868;4.180;2023-03-23T09:28:09;12.80;99.90
20670;DHT22;10494;50.868;4.180;2023-03-23T09:30:36;12.90;99.90
20670;DHT22;10494;50.868;4.180;2023-03-23T09:33:04;13.30;99.90
20670;DHT22;10494;50.868;4.180;2023-03-23T09:35:32;13.90;99.90
20670;DHT22;10494;50.868;4.180;2023-03-23T09:37:59;14.60;99.90
20670;DHT22;10494;50.868;4.180;2023-03-23T09:40:46;15.00;99.90
20670;DHT22;10494;50.868;4.180;2023-03-23T09:46:05;15.50;99.90
20670;DHT22;10494;50.868;4.180;2023-03-23T09:48:46;15.80;99.90
20670;DHT22;10494;50.868;4.180;2023-03-23T09:53:44;16.30;99.90
20670;DHT22;10494;50.868;4.180;2023-03-23T09:56:14;16.00;99.90
20670;DHT22;10494;50.868;4.180;2023-03-23T10:01:23;15.90;99.90
20670;DHT22;10494;50.868;4.180;2023-03-23T10:03:56;15.70;99.90
20670;DHT22;10494;50.868;4.180;2023-03-23T10:06:23;15.80;99.90
20670;DHT22;10494;50.868;4.180;2023-03-23T10:08:54;15.60;99.90
20670;DHT22;10494;50.868;4.180;2023-03-23T10:13:57;15.30;99.90
20670;DHT22;10494;50.868;4.180;2023-03-23T10:16:48;15.20;99.90
20670;DHT22;10494;50.868;4.180;2023-03-23T10:21:52;15.20;99.90
20670;DHT22;10494;50.868;4.180;2023-03-23T10:24:23;15.40;99.90
20670;DHT22;10494;50.868;4.180;2023-03-23T10:30:33;15.20;99.90
20670;DHT22;10494;50.868;4.180;2023-03-23T10:32:41;15.10;99.90
20670;DHT22;10494;50.868;4.180;2023-03-23T10:35:13;15.30;99.90
20670;DHT22;10494;50.868;4.180;2023-03-23T10:37:46;15.40;99.90
20670;DHT22;10494;50.868;4.180;2023-03-23T10:40:20;15.50;99.90
20670;DHT22;10494;50.868;4.180;2023-03-23T10:42:49;15.40;99.90
20670;DHT22;10494;50.868;4.180;2023-03-23T10:45:22;15.40;99.90
20670;DHT22;10494;50.868;4.180;2023-03-23T10:47:54;15.70;99.90
20670;DHT22;10494;50.868;4.180;2023-03-23T10:50:28;15.90;99.90
20670;DHT22;10494;50.868;4.180;2023-03-23T10:52:57;15.90;99.90
20670;DHT22;10494;50.868;4.180;2023-03-23T10:55:24;15.70;99.90
20670;DHT22;10494;50.868;4.180;2023-03-23T10:58:06;15.80;99.90
20670;DHT22;10494;50.868;4.180;2023-03-23T11:00:32;15.80;99.90
20670;DHT22;10494;50.868;4.180;2023-03-23T11:03:02;16.00;99.90
20670;DHT22;10494;50.868;4.180;2023-03-23T11:05:37;16.50;99.90
20670;DHT22;10494;50.868;4.180;2023-03-23T11:08:11;16.80;99.90
20670;DHT22;10494;50.868;4.180;2023-03-23T11:10:42;17.30;99.90
20670;DHT22;10494;50.868;4.180;2023-03-23T11:13:14;17.70;99.90
20670;DHT22;10494;50.868;4.180;2023-03-23T11:15:42;17.80;99.90
20670;DHT22;10494;50.868;4.180;2023-03-23T11:18:18;17.70;99.90
20670;DHT22;10494;50.868;4.180;2023-03-23T11:20:46;17.50;99.90
20670;DHT22;10494;50.868;4.180;2023-03-23T11:23:23;17.10;99.90
20670;DHT22;10494;50.868;4.180;2023-03-23T11:28:37;16.60;99.90
20670;DHT22;10494;50.868;4.180;2023-03-23T11:31:05;16.10;99.90
20670;DHT22;10494;50.868;4.180;2023-03-23T11:36:14;16.10;99.90
20670;DHT22;10494;50.868;4.180;2023-03-23T11:38:40;15.90;99.90
20670;DHT22;10494;50.868;4.180;2023-03-23T11:41:16;15.90;99.90
20670;DHT22;10494;50.868;4.180;2023-03-23T11:43:45;16.00;99.90
20670;DHT22;10494;50.868;4.180;2023-03-23T11:48:59;16.10;99.90
20670;DHT22;10494;50.868;4.180;2023-03-23T11:51:46;16.20;99.90
20670;DHT22;10494;50.868;4.180;2023-03-23T11:54:36;16.20;99.90
20670;DHT22;10494;50.868;4.180;2023-03-23T11:57:11;16.30;99.90
20670;DHT22;10494;50.868;4.180;2023-03-23T11:59:38;16.60;99.90
20670;DHT22;10494;50.868;4.180;2023-03-23T12:16:42;16.60;99.90
20670;DHT22;10494;50.868;4.180;2023-03-23T12:22:06;16.70;99.90
20670;DHT22;10494;50.868;4.180;2023-03-23T12:30:32;16.70;99.90
20670;DHT22;10494;50.868;4.180;2023-03-23T12:33:20;16.80;99.90
20670;DHT22;10494;50.868;4.180;2023-03-23T12:36:11;16.80;99.90
20670;DHT22;10494;50.868;4.180;2023-03-23T12:45:00;16.80;99.90
20670;DHT22;10494;50.868;4.180;2023-03-23T12:50:31;17.20;99.90
20670;DHT22;10494;50.868;4.180;2023-03-23T12:53:23;16.90;99.90
20670;DHT22;10494;50.868;4.180;2023-03-23T12:56:37;16.90;99.90
20670;DHT22;10494;50.868;4.180;2023-03-23T12:59:18;17.00;99.90
20670;DHT22;10494;50.868;4.180;2023-03-23T13:01:48;17.20;99.90
20670;DHT22;10494;50.868;4.180;2023-03-23T13:04:37;17.30;99.90
20670;DHT22;10494;50.868;4.180;2023-03-23T13:07:08;17.30;99.90
20670;DHT22;10494;50.868;4.180;2023-03-23T13:12:16;16.80;99.90
20670;DHT22;10494;50.868;4.180;2023-03-23T13:15:02;16.90;99.90
20670;DHT22;10494;50.868;4.180;2023-03-23T13:17:44;16.90;99.90
20670;DHT22;10494;50.868;4.180;2023-03-23T13:20:43;16.90;99.90
20670;DHT22;10494;50.868;4.180;2023-03-23T13:23:26;17.20;99.90
20670;DHT22;10494;50.868;4.180;2023-03-23T13:28:29;17.10;99.90
20670;DHT22;10494;50.868;4.180;2023-03-23T13:31:04;17.10;99.90
20670;DHT22;10494;50.868;4.180;2023-03-23T13:33:36;17.10;99.90
20670;DHT22;10494;50.868;4.180;2023-03-23T13:36:08;17.20;99.90
20670;DHT22;10494;50.868;4.180;2023-03-23T13:38:34;17.20;99.90
20670;DHT22;10494;50.868;4.180;2023-03-23T13:41:07;17.20;99.90
20670;DHT22;10494;50.868;4.180;2023-03-23T13:43:35;17.10;99.90
20670;DHT22;10494;50.868;4.180;2023-03-23T13:48:50;17.20;99.90
20670;DHT22;10494;50.868;4.180;2023-03-23T13:54:32;17.00;99.90
20670;DHT22;10494;50.868;4.180;2023-03-23T13:57:19;17.00;99.90
20670;DHT22;10494;50.868;4.180;2023-03-23T13:59:48;16.80;99.90
20670;DHT22;10494;50.868;4.180;2023-03-23T14:02:38;16.60;99.90
20670;DHT22;10494;50.868;4.180;2023-03-23T14:05:37;16.40;99.90
20670;DHT22;10494;50.868;4.180;2023-03-23T14:10:50;16.70;99.90
20670;DHT22;10494;50.868;4.180;2023-03-23T14:13:20;16.70;99.90
20670;DHT22;10494;50.868;4.180;2023-03-23T14:16:04;16.70;99.90
20670;DHT22;10494;50.868;4.180;2023-03-23T14:18:38;16.70;99.90
20670;DHT22;10494;50.868;4.180;2023-03-23T14:21:06;16.80;99.90
20670;DHT22;10494;50.868;4.180;2023-03-23T14:23:38;16.70;99.90
20670;DHT22;10494;50.868;4.180;2023-03-23T14:26:15;16.80;99.90
20670;DHT22;10494;50.868;4.180;2023-03-23T14:28:44;17.00;99.90
20670;DHT22;10494;50.868;4.180;2023-03-23T14:33:41;16.80;99.90
20670;DHT22;10494;50.868;4.180;2023-03-23T14:36:07;16.60;99.90
20670;DHT22;10494;50.868;4.180;2023-03-23T14:38:33;16.40;99.90
20670;DHT22;10494;50.868;4.180;2023-03-23T14:41:04;16.20;99.90
20670;DHT22;10494;50.868;4.180;2023-03-23T14:43:31;15.80;99.90
20670;DHT22;10494;50.868;4.180;2023-03-23T14:46:00;15.50;99.90
20670;DHT22;10494;50.868;4.180;2023-03-23T14:48:26;15.50;99.90
20670;DHT22;10494;50.868;4.180;2023-03-23T14:53:25;15.80;99.90
20670;DHT22;10494;50.868;4.180;2023-03-23T14:55:54;15.80;99.90
20670;DHT22;10494;50.868;4.180;2023-03-23T14:58:22;15.90;99.90
20670;DHT22;10494;50.868;4.180;2023-03-23T15:00:56;16.00;99.90
20670;DHT22;10494;50.868;4.180;2023-03-23T15:03:24;16.20;99.90
20670;DHT22;10494;50.868;4.180;2023-03-23T15:06:00;16.30;99.90
20670;DHT22;10494;50.868;4.180;2023-03-23T15:08:30;16.30;99.90
20670;DHT22;10494;50.868;4.180;2023-03-23T15:13:50;16.10;99.90
20670;DHT22;10494;50.868;4.180;2023-03-23T15:16:24;16.20;99.90
20670;DHT22;10494;50.868;4.180;2023-03-23T15:18:59;16.30;99.90
20670;DHT22;10494;50.868;4.180;2023-03-23T15:21:31;16.50;99.90
20670;DHT22;10494;50.868;4.180;2023-03-23T15:23:58;16.60;99.90
20670;DHT22;10494;50.868;4.180;2023-03-23T15:28:49;16.70;99.90
20670;DHT22;10494;50.868;4.180;2023-03-23T15:31:15;16.60;99.90
20670;DHT22;10494;50.868;4.180;2023-03-23T15:33:40;16.50;99.90
20670;DHT22;10494;50.868;4.180;2023-03-23T15:36:17;16.40;99.90
20670;DHT22;10494;50.868;4.180;2023-03-23T15:38:45;16.30;99.90
20670;DHT22;10494;50.868;4.180;2023-03-23T15:41:48;16.30;99.90
20670;DHT22;10494;50.868;4.180;2023-03-23T15:44:30;16.00;99.90
20670;DHT22;10494;50.868;4.180;2023-03-23T15:47:17;15.80;99.90
20670;DHT22;10494;50.868;4.180;2023-03-23T15:49:45;15.50;99.90
20670;DHT22;10494;50.868;4.180;2023-03-23T15:52:12;15.50;99.90
20670;DHT22;10494;50.868;4.180;2023-03-23T15:54:46;15.40;99.90
20670;DHT22;10494;50.868;4.180;2023-03-23T15:57:12;15.60;99.90
20670;DHT22;10494;50.868;4.180;2023-03-23T15:59:37;15.70;99.90
20670;DHT22;10494;50.868;4.180;2023-03-23T16:02:03;15.90;99.90
20670;DHT22;10494;50.868;4.180;2023-03-23T16:04:29;15.90;99.90
20670;DHT22;10494;50.868;4.180;2023-03-23T16:06:56;16.00;99.90
20670;DHT22;10494;50.868;4.180;2023-03-23T16:09:23;15.90;99.90
20670;DHT22;10494;50.868;4.180;2023-03-23T16:11:49;16.00;99.90
20670;DHT22;10494;50.868;4.180;2023-03-23T16:14:15;15.80;99.90
20670;DHT22;10494;50.868;4.180;2023-03-23T16:16:46;15.80;99.90
20670;DHT22;10494;50.868;4.180;2023-03-23T16:19:13;15.80;99.90
20670;DHT22;10494;50.868;4.180;2023-03-23T16:21:39;15.90;99.90
20670;DHT22;10494;50.868;4.180;2023-03-23T16:24:06;15.90;99.90
20670;DHT22;10494;50.868;4.180;2023-03-23T16:26:32;15.90;99.90
20670;DHT22;10494;50.868;4.180;2023-03-23T16:28:58;15.90;99.90
20670;DHT22;10494;50.868;4.180;2023-03-23T16:31:24;16.00;99.90
20670;DHT22;10494;50.868;4.180;2023-03-23T16:33:49;15.80;99.90
20670;DHT22;10494;50.868;4.180;2023-03-23T16:36:15;15.80;99.90
20670;DHT22;10494;50.868;4.180;2023-03-23T16:38:41;15.80;99.90
20670;DHT22;10494;50.868;4.180;2023-03-23T16:41:07;15.70;99.90
20670;DHT22;10494;50.868;4.180;2023-03-23T16:43:33;15.70;99.90
20670;DHT22;10494;50.868;4.180;2023-03-23T16:45:59;15.70;99.90
20670;DHT22;10494;50.868;4.180;2023-03-23T16:48:24;15.70;99.90
20670;DHT22;10494;50.868;4.180;2023-03-23T16:50:52;15.60;99.90
20670;DHT22;10494;50.868;4.180;2023-03-23T16:53:19;15.60;99.90
20670;DHT22;10494;50.868;4.180;2023-03-23T16:55:44;15.60;99.90
20670;DHT22;10494;50.868;4.180;2023-03-23T16:58:13;15.70;99.90
20670;DHT22;10494;50.868;4.180;2023-03-23T17:00:40;15.70;99.90
20670;DHT22;10494;50.868;4.180;2023-03-23T17:03:07;15.70;99.90
20670;DHT22;10494;50.868;4.180;2023-03-23T17:05:34;15.50;99.90
20670;DHT22;10494;50.868;4.180;2023-03-23T17:08:00;15.50;99.90
20670;DHT22;10494;50.868;4.180;2023-03-23T17:10:27;15.40;99.90
20670;DHT22;10494;50.868;4.180;2023-03-23T17:12:54;15.30;99.90
20670;DHT22;10494;50.868;4.180;2023-03-23T17:15:20;15.30;99.90
20670;DHT22;10494;50.868;4.180;2023-03-23T17:17:46;15.20;99.90
20670;DHT22;10494;50.868;4.180;2023-03-23T17:20:12;15.10;99.90